Time;durP1;ratioP1;P1;durP2;ratioP2;P2;SDS_P1;SDS_P2;PMS_P1;PMS_P2;Temp;Humidity;BMP_temperature;BMP_pressure;BME280_temperature;BME280_humidity;BME280_pressure;Samples;Min_cycle;Max_cycle;Signal;HPM_P1;HPM_P2
2023/05/19 00:01:42;;;;;;;;;;;20.30;51.50;;;;;;10328135;28;754;-71
2023/05/19 00:06:38;;;;;;;;;;;20.30;51.40;;;;;;10327681;28;817;-70
2023/05/19 00:11:35;;;;;;;;;;;20.30;51.50;;;;;;10327068;28;1902;-71
2023/05/19 00:16:30;;;;;;;;;;;20.30;51.50;;;;;;10327136;28;840;-71
2023/05/19 00:21:26;;;;;;;;;;;20.30;51.50;;;;;;10327394;28;777;-71
2023/05/19 00:26:21;;;;;;;;;;;20.30;51.40;;;;;;10325944;28;890;-71
2023/05/19 00:31:17;;;;;;;;;;;20.30;51.50;;;;;;10326939;28;1902;-71
2023/05/19 00:36:12;;;;;;;;;;;20.30;51.50;;;;;;10326178;28;1112;-71
2023/05/19 00:41:08;;;;;;;;;;;20.30;51.40;;;;;;10326751;28;841;-71
2023/05/19 00:46:03;;;;;;;;;;;20.30;51.40;;;;;;10326620;28;790;-71
2023/05/19 00:51:02;;;;;;;;;;;20.30;51.30;;;;;;10325858;28;1915;-71
2023/05/19 00:55:58;;;;;;;;;;;20.30;51.40;;;;;;10325763;28;929;-70
2023/05/19 01:00:54;;;;;;;;;;;20.30;51.40;;;;;;10326884;28;896;-70
2023/05/19 01:05:52;;;;;;;;;;;20.30;51.40;;;;;;10326120;28;976;-70
2023/05/19 01:10:47;;;;;;;;;;;20.30;51.40;;;;;;10326086;28;1969;-71
2023/05/19 01:15:43;;;;;;;;;;;20.30;51.40;;;;;;10325903;28;842;-71
2023/05/19 01:20:38;;;;;;;;;;;20.20;51.40;;;;;;10325895;28;853;-71
2023/05/19 01:25:34;;;;;;;;;;;20.20;51.40;;;;;;10325294;28;935;-70
2023/05/19 01:30:29;;;;;;;;;;;20.20;51.40;;;;;;10324562;28;1901;-71
2023/05/19 01:35:24;;;;;;;;;;;20.20;51.40;;;;;;10328980;28;1117;-70
2023/05/19 01:40:20;;;;;;;;;;;20.20;51.40;;;;;;10333082;28;782;-70
2023/05/19 01:45:15;;;;;;;;;;;20.20;51.40;;;;;;10332283;28;901;-71
2023/05/19 01:50:11;;;;;;;;;;;20.20;51.30;;;;;;10332726;28;769;-70
2023/05/19 01:55:06;;;;;;;;;;;20.30;51.30;;;;;;10333083;28;1906;-71
2023/05/19 02:00:04;;;;;;;;;;;20.20;51.30;;;;;;10332941;28;881;-70
2023/05/19 02:04:59;;;;;;;;;;;20.20;51.30;;;;;;10332393;28;934;-70
2023/05/19 02:09:55;;;;;;;;;;;20.20;51.40;;;;;;10331277;28;1191;-71
2023/05/19 02:14:50;;;;;;;;;;;20.20;51.40;;;;;;10331684;28;1963;-71
2023/05/19 02:19:45;;;;;;;;;;;20.20;51.40;;;;;;10332173;28;829;-71
2023/05/19 02:24:41;;;;;;;;;;;20.20;51.40;;;;;;10330817;28;904;-70
2023/05/19 02:29:36;;;;;;;;;;;20.20;51.40;;;;;;10331157;28;925;-71
2023/05/19 02:34:32;;;;;;;;;;;20.10;51.30;;;;;;10330822;28;1914;-71
2023/05/19 02:39:29;;;;;;;;;;;20.10;51.40;;;;;;10332031;28;774;-71
2023/05/19 02:44:25;;;;;;;;;;;20.10;51.40;;;;;;10330624;28;838;-71
2023/05/19 02:49:20;;;;;;;;;;;20.10;51.40;;;;;;10329324;28;1011;-71
2023/05/19 02:54:15;;;;;;;;;;;20.10;51.30;;;;;;10330261;28;1979;-70
2023/05/19 02:59:11;;;;;;;;;;;20.10;51.30;;;;;;10330118;28;854;-71
2023/05/19 03:04:06;;;;;;;;;;;20.10;51.30;;;;;;10329917;28;814;-71
2023/05/19 03:09:01;;;;;;;;;;;20.10;51.40;;;;;;10329078;28;1049;-70
2023/05/19 03:13:57;;;;;;;;;;;20.10;51.30;;;;;;10329577;28;1961;-70
2023/05/19 03:18:52;;;;;;;;;;;20.10;51.20;;;;;;10329322;28;766;-71
2023/05/19 03:23:48;;;;;;;;;;;20.10;51.20;;;;;;10328611;28;918;-70
2023/05/19 03:28:43;;;;;;;;;;;20.10;51.30;;;;;;10328368;28;855;-70
2023/05/19 03:33:38;;;;;;;;;;;20.10;51.30;;;;;;10329033;28;1947;-71
2023/05/19 03:38:34;;;;;;;;;;;20.10;51.40;;;;;;10327833;28;1157;-70
2023/05/19 03:43:29;;;;;;;;;;;20.00;51.70;;;;;;10327692;28;1091;-71
2023/05/19 03:48:25;;;;;;;;;;;20.10;51.40;;;;;;10329391;28;860;-71
2023/05/19 03:53:20;;;;;;;;;;;20.00;51.40;;;;;;10327853;28;1913;-71
2023/05/19 03:58:16;;;;;;;;;;;20.00;51.40;;;;;;10327395;28;865;-70
2023/05/19 04:03:11;;;;;;;;;;;20.00;51.20;;;;;;10327563;28;798;-70
2023/05/19 04:08:07;;;;;;;;;;;20.10;51.20;;;;;;10328562;28;952;-70
2023/05/19 04:13:02;;;;;;;;;;;20.10;51.20;;;;;;10327110;28;1906;-70
2023/05/19 04:17:57;;;;;;;;;;;20.00;51.20;;;;;;10328263;28;866;-70
2023/05/19 04:22:53;;;;;;;;;;;20.00;51.10;;;;;;10327659;28;919;-71
2023/05/19 04:27:48;;;;;;;;;;;20.10;51.20;;;;;;10327203;28;762;-70
2023/05/19 04:32:43;;;;;;;;;;;20.10;51.10;;;;;;10326399;28;1902;-71
2023/05/19 04:37:39;;;;;;;;;;;20.10;51.10;;;;;;10326307;28;1275;-69
2023/05/19 04:42:34;;;;;;;;;;;20.10;50.90;;;;;;10326201;28;798;-67
2023/05/19 04:47:30;;;;;;;;;;;20.10;50.80;;;;;;10326620;28;951;-67
2023/05/19 04:52:26;;;;;;;;;;;20.00;50.90;;;;;;10325878;28;1983;-67
2023/05/19 04:57:21;;;;;;;;;;;20.00;50.80;;;;;;10325732;28;902;-68
2023/05/19 05:02:17;;;;;;;;;;;20.00;50.80;;;;;;10325733;28;987;-68
2023/05/19 05:07:12;;;;;;;;;;;19.90;50.80;;;;;;10326170;28;933;-68
2023/05/19 05:12:08;;;;;;;;;;;20.00;50.80;;;;;;10325057;28;1910;-67
2023/05/19 05:17:03;;;;;;;;;;;19.90;50.80;;;;;;10325408;28;891;-67
2023/05/19 05:21:58;;;;;;;;;;;20.00;50.80;;;;;;10325270;28;788;-68
2023/05/19 05:26:54;;;;;;;;;;;20.00;50.80;;;;;;10326433;28;836;-67
2023/05/19 05:31:49;;;;;;;;;;;20.00;50.70;;;;;;10325010;28;1906;-67
2023/05/19 05:36:44;;;;;;;;;;;20.00;50.80;;;;;;10325288;28;1520;-68
2023/05/19 05:41:40;;;;;;;;;;;20.00;50.80;;;;;;10324926;28;841;-68
2023/05/19 05:46:35;;;;;;;;;;;20.00;50.90;;;;;;10324798;28;881;-68
2023/05/19 05:51:31;;;;;;;;;;;20.00;50.90;;;;;;10325305;28;1922;-68
2023/05/19 05:56:27;;;;;;;;;;;20.00;50.90;;;;;;10325390;28;866;-67
2023/05/19 06:01:22;;;;;;;;;;;20.00;50.80;;;;;;10324558;28;801;-68
2023/05/19 06:06:18;;;;;;;;;;;20.00;50.90;;;;;;10324455;28;813;-68
2023/05/19 06:11:13;;;;;;;;;;;19.90;50.90;;;;;;10324894;28;1910;-68
2023/05/19 06:16:08;;;;;;;;;;;19.90;51.20;;;;;;10324807;28;1003;-68
2023/05/19 06:21:04;;;;;;;;;;;19.90;51.10;;;;;;10325643;28;860;-67
2023/05/19 06:26:00;;;;;;;;;;;19.90;51.10;;;;;;10332040;28;856;-68
2023/05/19 06:30:55;;;;;;;;;;;19.80;51.10;;;;;;10331730;28;1965;-68
2023/05/19 06:35:50;;;;;;;;;;;19.90;51.20;;;;;;10331236;28;1077;-68
2023/05/19 06:40:46;;;;;;;;;;;20.00;51.10;;;;;;10331455;28;781;-68
2023/05/19 06:45:41;;;;;;;;;;;20.00;51.10;;;;;;10331278;28;904;-67
2023/05/19 06:50:37;;;;;;;;;;;20.00;51.10;;;;;;10329820;28;1914;-68
2023/05/19 06:55:32;;;;;;;;;;;20.00;51.10;;;;;;10330331;28;750;-67
2023/05/19 07:00:27;;;;;;;;;;;20.00;51.10;;;;;;10330954;28;831;-67
2023/05/19 07:05:23;;;;;;;;;;;19.90;51.10;;;;;;10329952;28;818;-67
2023/05/19 07:10:20;;;;;;;;;;;19.90;51.20;;;;;;10330352;28;841;-67
2023/05/19 07:15:15;;;;;;;;;;;19.90;51.20;;;;;;10329683;28;1897;-67
2023/05/19 07:20:10;;;;;;;;;;;19.90;50.90;;;;;;10329949;28;933;-67
2023/05/19 07:25:06;;;;;;;;;;;20.00;50.90;;;;;;10329118;28;894;-68
2023/05/19 07:30:02;;;;;;;;;;;20.00;50.70;;;;;;10329040;28;837;-67
2023/05/19 07:34:58;;;;;;;;;;;20.00;50.70;;;;;;10328477;28;1953;-67
2023/05/19 07:39:53;;;;;;;;;;;20.00;50.80;;;;;;10328534;28;945;-67
2023/05/19 07:44:49;;;;;;;;;;;20.00;50.90;;;;;;10327730;28;1050;-68
2023/05/19 07:49:44;;;;;;;;;;;20.00;50.90;;;;;;10328710;28;862;-67
2023/05/19 07:54:39;;;;;;;;;;;20.00;51.00;;;;;;10328468;28;1963;-67
2023/05/19 07:59:35;;;;;;;;;;;20.10;51.20;;;;;;10327686;28;1140;-67
2023/05/19 08:04:30;;;;;;;;;;;20.00;51.20;;;;;;10327819;28;971;-70
2023/05/19 08:09:26;;;;;;;;;;;20.00;51.20;;;;;;10326783;28;873;-67
2023/05/19 08:14:21;;;;;;;;;;;20.00;51.50;;;;;;10327683;28;1957;-66
2023/05/19 08:19:17;;;;;;;;;;;20.00;51.40;;;;;;10327582;28;958;-67
2023/05/19 08:24:12;;;;;;;;;;;20.00;51.70;;;;;;10327376;28;813;-68
2023/05/19 08:29:07;;;;;;;;;;;20.00;51.60;;;;;;10326446;28;804;-68
2023/05/19 08:34:03;;;;;;;;;;;20.00;51.60;;;;;;10327160;28;1954;-68
2023/05/19 08:38:58;;;;;;;;;;;19.90;51.60;;;;;;10326706;28;770;-68
2023/05/19 08:43:53;;;;;;;;;;;19.90;51.60;;;;;;10327188;28;889;-68
2023/05/19 08:48:49;;;;;;;;;;;19.90;51.70;;;;;;10326664;28;778;-68
2023/05/19 08:53:44;;;;;;;;;;;19.90;51.70;;;;;;10325861;28;1973;-68
2023/05/19 08:58:41;;;;;;;;;;;19.90;51.70;;;;;;10326343;28;973;-68
2023/05/19 09:03:39;;;;;;;;;;;19.90;51.70;;;;;;10325692;28;810;-68
2023/05/19 09:08:36;;;;;;;;;;;19.90;51.70;;;;;;10326180;28;885;-68
2023/05/19 09:13:31;;;;;;;;;;;19.90;51.70;;;;;;10325355;28;1969;-68
2023/05/19 09:18:26;;;;;;;;;;;19.90;51.70;;;;;;10325422;28;965;-68
2023/05/19 09:23:23;;;;;;;;;;;19.90;51.70;;;;;;10325342;28;781;-68
2023/05/19 09:28:19;;;;;;;;;;;19.90;51.70;;;;;;10325250;28;881;-68
2023/05/19 09:33:14;;;;;;;;;;;20.00;51.60;;;;;;10325558;28;1910;-68
2023/05/19 09:38:10;;;;;;;;;;;19.90;51.60;;;;;;10325370;28;1182;-68
2023/05/19 09:43:06;;;;;;;;;;;20.00;51.70;;;;;;10324280;28;976;-68
2023/05/19 09:48:01;;;;;;;;;;;20.00;51.70;;;;;;10325440;28;877;-68
2023/05/19 09:52:57;;;;;;;;;;;20.00;51.70;;;;;;10325657;28;1914;-68
2023/05/19 09:57:52;;;;;;;;;;;19.90;51.60;;;;;;10329715;28;929;-68
2023/05/19 10:02:49;;;;;;;;;;;20.00;51.70;;;;;;10332319;28;813;-68
2023/05/19 10:07:47;;;;;;;;;;;20.00;51.70;;;;;;10332062;28;898;-68
2023/05/19 10:12:42;;;;;;;;;;;20.00;51.60;;;;;;10331624;28;1906;-69
2023/05/19 10:17:38;;;;;;;;;;;20.00;51.70;;;;;;10331866;28;813;-67
2023/05/19 10:22:33;;;;;;;;;;;20.00;51.70;;;;;;10331558;28;828;-68
2023/05/19 10:27:29;;;;;;;;;;;20.00;51.50;;;;;;10331634;28;856;-69
2023/05/19 10:32:24;;;;;;;;;;;20.00;51.50;;;;;;10331859;28;1910;-69
2023/05/19 10:37:20;;;;;;;;;;;20.00;51.50;;;;;;10331743;28;1136;-69
2023/05/19 10:42:16;;;;;;;;;;;19.90;51.40;;;;;;10331283;28;863;-69
2023/05/19 10:47:11;;;;;;;;;;;19.90;51.10;;;;;;10330042;28;1041;-69
2023/05/19 10:52:06;;;;;;;;;;;19.90;51.50;;;;;;10330403;28;1972;-70
2023/05/19 10:57:02;;;;;;;;;;;19.90;50.70;;;;;;10330310;28;932;-70
2023/05/19 11:01:57;;;;;;;;;;;19.90;50.50;;;;;;10329716;28;960;-71
2023/05/19 11:06:52;;;;;;;;;;;20.00;50.40;;;;;;10330508;28;889;-70
2023/05/19 11:11:48;;;;;;;;;;;20.00;50.20;;;;;;10330205;28;1902;-70
2023/05/19 11:16:44;;;;;;;;;;;20.00;49.80;;;;;;10329567;28;941;-69
2023/05/19 11:21:40;;;;;;;;;;;20.10;49.90;;;;;;10330290;28;766;-69
2023/05/19 11:26:35;;;;;;;;;;;20.30;50.10;;;;;;10329460;28;851;-69
2023/05/19 11:31:30;;;;;;;;;;;20.20;50.10;;;;;;10329507;28;1902;-69
2023/05/19 11:36:26;;;;;;;;;;;20.20;50.40;;;;;;10328817;28;1228;-69
2023/05/19 11:41:21;;;;;;;;;;;20.10;50.40;;;;;;10329041;28;832;-69
2023/05/19 11:46:16;;;;;;;;;;;20.10;50.40;;;;;;10325453;28;1063;-69
2023/05/19 11:51:12;;;;;;;;;;;20.10;50.50;;;;;;10327771;28;1922;-69
2023/05/19 11:56:07;;;;;;;;;;;20.10;50.50;;;;;;10328153;28;1040;-69
2023/05/19 12:01:03;;;;;;;;;;;20.10;50.70;;;;;;10328007;28;857;-69
2023/05/19 12:05:58;;;;;;;;;;;20.10;50.70;;;;;;10328479;28;936;-69
2023/05/19 12:10:55;;;;;;;;;;;20.00;50.70;;;;;;10326377;28;1961;-73
2023/05/19 12:15:50;;;;;;;;;;;20.00;50.80;;;;;;10327866;28;782;-76
2023/05/19 12:20:46;;;;;;;;;;;20.00;50.90;;;;;;10326113;28;886;-69
2023/05/19 12:25:41;;;;;;;;;;;20.10;50.90;;;;;;10326836;28;782;-69
2023/05/19 12:30:37;;;;;;;;;;;20.00;50.70;;;;;;10326623;28;829;-69
2023/05/19 12:35:33;;;;;;;;;;;20.00;50.80;;;;;;10325694;28;1906;-69
2023/05/19 12:40:28;;;;;;;;;;;20.00;50.80;;;;;;10326334;28;806;-69
2023/05/19 12:45:26;;;;;;;;;;;20.00;50.80;;;;;;10326256;28;877;-69
2023/05/19 12:50:22;;;;;;;;;;;20.10;50.80;;;;;;10326049;28;782;-68
2023/05/19 12:55:19;;;;;;;;;;;20.10;50.70;;;;;;10325743;28;1914;-69
2023/05/19 13:00:16;;;;;;;;;;;20.10;50.70;;;;;;10325617;28;880;-68
2023/05/19 13:05:11;;;;;;;;;;;20.10;50.80;;;;;;10325407;28;840;-69
2023/05/19 13:10:07;;;;;;;;;;;20.10;50.80;;;;;;10326245;28;810;-69
2023/05/19 13:15:02;;;;;;;;;;;20.10;50.80;;;;;;10325182;28;1906;-68
2023/05/19 13:19:57;;;;;;;;;;;20.10;50.80;;;;;;10325798;28;841;-69
2023/05/19 13:24:53;;;;;;;;;;;20.20;50.80;;;;;;10325778;28;773;-69
2023/05/19 13:29:48;;;;;;;;;;;20.20;50.80;;;;;;10326983;28;942;-69
2023/05/19 13:34:43;;;;;;;;;;;20.20;50.80;;;;;;10333300;28;2004;-69
2023/05/19 13:39:39;;;;;;;;;;;20.20;50.80;;;;;;10333087;28;811;-69
2023/05/19 13:44:34;;;;;;;;;;;20.20;50.70;;;;;;10332869;28;956;-69
2023/05/19 13:49:30;;;;;;;;;;;20.30;50.90;;;;;;10332646;28;786;-69
2023/05/19 13:54:25;;;;;;;;;;;20.30;50.80;;;;;;10332984;28;1921;-69
2023/05/19 13:59:21;;;;;;;;;;;20.30;50.70;;;;;;10332183;28;874;-69
2023/05/19 14:04:16;;;;;;;;;;;20.40;50.80;;;;;;10332389;28;888;-69
2023/05/19 14:09:12;;;;;;;;;;;20.40;50.70;;;;;;10332064;28;855;-69
2023/05/19 14:14:07;;;;;;;;;;;20.50;50.70;;;;;;10331896;28;1973;-71
2023/05/19 14:19:02;;;;;;;;;;;20.50;50.60;;;;;;10329475;28;1176;-69
2023/05/19 14:23:58;;;;;;;;;;;20.50;50.60;;;;;;10331727;28;888;-69
2023/05/19 14:28:53;;;;;;;;;;;20.50;50.60;;;;;;10330913;28;855;-69
2023/05/19 14:33:48;;;;;;;;;;;20.60;51.10;;;;;;10331294;28;1969;-69
2023/05/19 14:38:44;;;;;;;;;;;20.60;50.40;;;;;;10331027;28;1267;-69
2023/05/19 14:43:41;;;;;;;;;;;20.70;50.50;;;;;;10329455;28;895;-70
2023/05/19 14:48:37;;;;;;;;;;;20.70;50.40;;;;;;10330526;28;794;-69
2023/05/19 14:53:32;;;;;;;;;;;20.70;50.30;;;;;;10330485;28;1918;-68
2023/05/19 14:58:27;;;;;;;;;;;20.80;50.30;;;;;;10330387;28;813;-68
2023/05/19 15:03:23;;;;;;;;;;;20.80;50.20;;;;;;10329545;28;923;-68
2023/05/19 15:08:19;;;;;;;;;;;20.90;50.20;;;;;;10329999;28;827;-69
2023/05/19 15:13:14;;;;;;;;;;;20.90;50.00;;;;;;10330511;28;1965;-69
2023/05/19 15:18:10;;;;;;;;;;;20.90;49.80;;;;;;10329577;28;894;-69
2023/05/19 15:23:05;;;;;;;;;;;20.90;49.70;;;;;;10329434;28;766;-69
2023/05/19 15:28:01;;;;;;;;;;;20.90;49.80;;;;;;10329798;28;872;-69
2023/05/19 15:32:56;;;;;;;;;;;20.90;49.70;;;;;;10328908;28;1902;-69
2023/05/19 15:37:51;;;;;;;;;;;21.00;49.70;;;;;;10329811;28;1117;-69
2023/05/19 15:42:47;;;;;;;;;;;21.00;49.70;;;;;;10328293;28;972;-69
2023/05/19 15:47:42;;;;;;;;;;;21.00;49.60;;;;;;10328535;28;793;-69
2023/05/19 15:52:37;;;;;;;;;;;21.00;49.70;;;;;;10328251;28;1971;-69
2023/05/19 15:57:33;;;;;;;;;;;20.90;49.70;;;;;;10327980;28;886;-69
2023/05/19 16:02:28;;;;;;;;;;;20.90;49.80;;;;;;10327188;28;849;-69
2023/05/19 16:07:24;;;;;;;;;;;20.90;49.90;;;;;;10328133;28;838;-69
2023/05/19 16:12:19;;;;;;;;;;;20.80;50.10;;;;;;10327521;28;1957;-69
2023/05/19 16:17:14;;;;;;;;;;;20.70;50.10;;;;;;10327555;28;871;-69
2023/05/19 16:22:10;;;;;;;;;;;20.70;50.10;;;;;;10327800;28;877;-72
2023/05/19 16:27:05;;;;;;;;;;;20.70;50.10;;;;;;10326244;28;919;-69
2023/05/19 16:32:01;;;;;;;;;;;20.70;50.00;;;;;;10326768;28;1961;-69
2023/05/19 16:36:56;;;;;;;;;;;20.70;50.00;;;;;;10327764;28;1121;-69
2023/05/19 16:41:52;;;;;;;;;;;20.70;50.00;;;;;;10326371;28;825;-69
2023/05/19 16:46:47;;;;;;;;;;;20.70;50.00;;;;;;10326798;28;971;-69
2023/05/19 16:51:42;;;;;;;;;;;20.70;50.00;;;;;;10325575;28;1906;-69
2023/05/19 16:56:38;;;;;;;;;;;20.70;50.00;;;;;;10327646;28;892;-69
2023/05/19 17:01:33;;;;;;;;;;;20.70;50.10;;;;;;10325936;28;833;-69
2023/05/19 17:06:28;;;;;;;;;;;20.70;50.10;;;;;;10325855;28;990;-69
2023/05/19 17:11:25;;;;;;;;;;;20.60;50.10;;;;;;10325572;28;1961;-69
2023/05/19 17:16:22;;;;;;;;;;;20.60;50.10;;;;;;10325488;28;813;-69
2023/05/19 17:21:17;;;;;;;;;;;20.60;50.10;;;;;;10325948;28;886;-69
2023/05/19 17:26:14;;;;;;;;;;;20.60;50.10;;;;;;10325303;28;775;-69
2023/05/19 17:31:10;;;;;;;;;;;20.60;50.10;;;;;;10325688;28;1898;-69
2023/05/19 17:36:05;;;;;;;;;;;20.70;50.20;;;;;;10325140;28;1112;-69
2023/05/19 17:41:01;;;;;;;;;;;20.60;50.10;;;;;;10325010;28;775;-69
2023/05/19 17:45:56;;;;;;;;;;;20.60;50.20;;;;;;10324403;28;911;-69
2023/05/19 17:50:51;;;;;;;;;;;20.60;50.20;;;;;;10324745;28;1972;-69
2023/05/19 17:55:47;;;;;;;;;;;20.60;50.20;;;;;;10324710;28;968;-69
2023/05/19 18:00:42;;;;;;;;;;;20.60;50.20;;;;;;10324057;28;936;-69
2023/05/19 18:05:38;;;;;;;;;;;20.70;50.20;;;;;;10324534;28;947;-69
2023/05/19 18:10:34;;;;;;;;;;;20.70;50.20;;;;;;10324339;28;965;-69
2023/05/19 18:15:29;;;;;;;;;;;20.70;50.20;;;;;;10323645;28;1906;-69
2023/05/19 18:20:25;;;;;;;;;;;20.70;50.70;;;;;;10331546;28;843;-69
2023/05/19 18:25:20;;;;;;;;;;;20.70;50.20;;;;;;10331621;28;810;-69
2023/05/19 18:30:15;;;;;;;;;;;20.70;50.20;;;;;;10331434;28;881;-69
2023/05/19 18:35:11;;;;;;;;;;;20.70;50.20;;;;;;10331030;28;1902;-69
2023/05/19 18:40:06;;;;;;;;;;;20.70;50.10;;;;;;10331109;28;849;-69
2023/05/19 18:45:02;;;;;;;;;;;20.70;50.10;;;;;;10331224;28;793;-68
2023/05/19 18:49:57;;;;;;;;;;;20.70;50.10;;;;;;10330713;28;860;-68
2023/05/19 18:54:53;;;;;;;;;;;20.70;50.10;;;;;;10330709;28;1918;-68
2023/05/19 18:59:48;;;;;;;;;;;20.70;50.10;;;;;;10330313;28;938;-68
2023/05/19 19:04:44;;;;;;;;;;;20.70;50.00;;;;;;10330675;28;796;-68
2023/05/19 19:09:42;;;;;;;;;;;20.70;50.00;;;;;;10331110;28;809;-69
2023/05/19 19:14:37;;;;;;;;;;;20.70;50.10;;;;;;10330687;28;1902;-69
2023/05/19 19:19:33;;;;;;;;;;;20.70;50.20;;;;;;10329794;28;934;-69
2023/05/19 19:24:29;;;;;;;;;;;20.70;50.10;;;;;;10328824;28;967;-69
2023/05/19 19:29:24;;;;;;;;;;;20.70;50.20;;;;;;10329407;28;794;-69
2023/05/19 19:34:21;;;;;;;;;;;20.60;50.20;;;;;;10328320;28;1909;-70
2023/05/19 19:39:16;;;;;;;;;;;20.60;50.20;;;;;;10329645;28;868;-69
2023/05/19 19:44:12;;;;;;;;;;;20.60;50.20;;;;;;10328651;28;1164;-69
2023/05/19 19:49:07;;;;;;;;;;;20.60;50.30;;;;;;10328994;28;878;-69
2023/05/19 19:54:03;;;;;;;;;;;20.60;50.30;;;;;;10328173;28;1906;-69
2023/05/19 19:58:58;;;;;;;;;;;20.60;50.30;;;;;;10328674;28;860;-69
2023/05/19 20:03:54;;;;;;;;;;;20.60;50.30;;;;;;10327745;28;957;-69
2023/05/19 20:08:49;;;;;;;;;;;20.60;50.30;;;;;;10328513;28;901;-69
2023/05/19 20:13:45;;;;;;;;;;;20.60;50.40;;;;;;10327303;28;1973;-69
2023/05/19 20:18:41;;;;;;;;;;;20.50;50.40;;;;;;10327975;28;806;-69
2023/05/19 20:23:37;;;;;;;;;;;20.50;50.40;;;;;;10327042;28;914;-69
2023/05/19 20:28:34;;;;;;;;;;;20.50;50.40;;;;;;10326942;28;860;-69
2023/05/19 20:33:30;;;;;;;;;;;20.50;50.40;;;;;;10326741;28;1910;-69
2023/05/19 20:38:25;;;;;;;;;;;20.50;50.50;;;;;;10326933;28;1170;-69
2023/05/19 20:43:21;;;;;;;;;;;20.40;50.40;;;;;;10325166;28;880;-69
2023/05/19 20:48:16;;;;;;;;;;;20.50;50.50;;;;;;10327061;28;864;-69
2023/05/19 20:53:11;;;;;;;;;;;20.40;50.40;;;;;;10326604;28;1914;-69
2023/05/19 20:58:07;;;;;;;;;;;20.50;50.50;;;;;;10325986;28;876;-69
2023/05/19 21:03:02;;;;;;;;;;;20.50;50.60;;;;;;10327094;28;891;-69
2023/05/19 21:07:58;;;;;;;;;;;20.50;50.50;;;;;;10325694;28;774;-69
2023/05/19 21:12:53;;;;;;;;;;;20.40;50.50;;;;;;10325905;28;1959;-69
2023/05/19 21:17:48;;;;;;;;;;;20.40;50.50;;;;;;10326357;28;807;-69
2023/05/19 21:22:44;;;;;;;;;;;20.40;50.50;;;;;;10325400;28;806;-69
2023/05/19 21:27:39;;;;;;;;;;;20.40;50.40;;;;;;10325614;28;793;-72
2023/05/19 21:32:35;;;;;;;;;;;20.40;50.40;;;;;;10325376;28;1906;-72
2023/05/19 21:37:30;;;;;;;;;;;20.40;50.40;;;;;;10324309;28;1400;-72
2023/05/19 21:42:25;;;;;;;;;;;20.50;50.40;;;;;;10325621;28;915;-72
2023/05/19 21:47:21;;;;;;;;;;;20.50;50.40;;;;;;10324887;28;798;-72
2023/05/19 21:52:17;;;;;;;;;;;20.50;50.40;;;;;;10327808;28;1934;-72
2023/05/19 21:57:13;;;;;;;;;;;20.50;50.40;;;;;;10332773;28;771;-72
2023/05/19 22:02:08;;;;;;;;;;;20.50;50.40;;;;;;10333302;28;963;-72
2023/05/19 22:07:04;;;;;;;;;;;20.50;50.40;;;;;;10332310;28;874;-72
2023/05/19 22:11:59;;;;;;;;;;;20.50;50.40;;;;;;10332740;28;1906;-72
2023/05/19 22:16:55;;;;;;;;;;;20.50;50.30;;;;;;10332594;28;873;-72
2023/05/19 22:21:50;;;;;;;;;;;20.50;50.40;;;;;;10331825;28;1616;-72
2023/05/19 22:26:46;;;;;;;;;;;20.50;50.40;;;;;;10332024;28;827;-72
2023/05/19 22:31:41;;;;;;;;;;;20.50;50.40;;;;;;10331587;28;1906;-72
2023/05/19 22:36:36;;;;;;;;;;;20.50;50.40;;;;;;10331834;28;1160;-72
2023/05/19 22:41:32;;;;;;;;;;;20.50;50.40;;;;;;10331710;28;833;-72
2023/05/19 22:46:27;;;;;;;;;;;20.50;50.30;;;;;;10330936;28;948;-72
2023/05/19 22:51:22;;;;;;;;;;;20.50;50.40;;;;;;10330742;28;1976;-72
2023/05/19 22:56:18;;;;;;;;;;;20.50;50.40;;;;;;10331194;28;825;-72
2023/05/19 23:01:13;;;;;;;;;;;20.50;50.40;;;;;;10330443;28;864;-72
2023/05/19 23:06:09;;;;;;;;;;;20.50;50.30;;;;;;10328916;28;902;-72
2023/05/19 23:11:04;;;;;;;;;;;20.50;50.30;;;;;;10330376;28;1968;-72
2023/05/19 23:16:00;;;;;;;;;;;20.50;50.30;;;;;;10330689;28;821;-72
2023/05/19 23:20:55;;;;;;;;;;;20.50;50.30;;;;;;10329582;28;894;-72
2023/05/19 23:25:51;;;;;;;;;;;20.50;50.30;;;;;;10330104;28;813;-72
2023/05/19 23:30:46;;;;;;;;;;;20.50;50.30;;;;;;10329763;28;825;-72
2023/05/19 23:35:42;;;;;;;;;;;20.50;50.30;;;;;;10329542;28;1886;-72
2023/05/19 23:40:37;;;;;;;;;;;20.50;50.30;;;;;;10328800;28;892;-73
2023/05/19 23:45:33;;;;;;;;;;;20.50;50.20;;;;;;10328619;28;872;-72
2023/05/19 23:50:28;;;;;;;;;;;20.50;50.20;;;;;;10329016;28;825;-72
2023/05/19 23:55:23;;;;;;;;;;;20.50;50.20;;;;;;10328277;28;1967;-72
